Flight Track Log - Related Links

Times and Time Zones

All times are in EDT time to prevent confusion due to time zone crossing. See the SWA1296 flight status page for this flight to view local times or setup timezone preferences in your user account.

Time Position Orientation Groundspeed Altitude Reporting Facility
EDT Latitude Longitude Course Direction KTS MPH feet Rate Location/Type
Sat 06:06:15 AM 40.7884 -75.1565 101° East  Level FlightAware Approximate
Sat 06:07:15 AM 40.7758 -75.2762 99° East  Level FlightAware Approximate
Sat 06:08:15 AM 40.7429 -75.3917 96° East  Level FlightAware Approximate
Sat 06:09:15 AM 40.7089 -75.5067 94° East  Level FlightAware Approximate
Sat 06:10:15 AM 40.6677 -75.6174 91° East  Level FlightAware Approximate
Sat 06:11:15 AM 40.6508 -75.7386 90° East  Level FlightAware Approximate
Sat 06:12:15 AM 40.5950 -75.8167 88° East  Level FlightAware Approximate
Sat 06:13:15 AM 40.5501 -75.9247 86° East  Level FlightAware Approximate
Sat 06:14:15 AM 40.5092 -76.0353 84° East  Level FlightAware Approximate
Sat 06:15:15 AM 40.4991 -76.1576 84° East  Level FlightAware Approximate
Sat 06:16:15 AM 40.4889 -76.2798 84° East  Level FlightAware Approximate
Sat 06:17:15 AM 40.4786 -76.4020 84° East  Level FlightAware Approximate
Sat 06:18:07 AM 40.6333 -74.1667 201° Southwest 189 217 2,500  Level New York TRACON
Sat 06:19:13 AM 40.5667 -74.2000 270° West 229 264 5,100 2,190 Climbing New York TRACON
Sat 06:20:13 AM 40.5667 -74.2667 298° West 238 274 7,100 2,450 Climbing New York TRACON
Sat 06:21:13 AM 40.6000 -74.3500 323° Northwest 252 290 10,000 1,500 Climbing New York TRACON
Sat 06:22:13 AM 40.6667 -74.4167 282° West 293 337 10,100 1,200 Climbing New York TRACON
Sat 06:23:13 AM 40.6833 -74.5167 286° West 306 352 12,400 2,609 Climbing New York TRACON
Sat 06:24:54 AM 40.7233 -74.6975 284° West 305 351 17,100 1,785 Climbing New York Center
Sat 06:25:51 AM 40.7411 -74.7917 284° West 300 345 17,100 615 Level New York Center
Sat 06:26:51 AM 40.7639 -74.9136 283° West 305 351 18,300 2,033 Climbing New York Center
Sat 06:27:52 AM 40.7814 -75.0106 282° West 300 345 21,200 2,876 Climbing New York Center
Sat 06:28:52 AM 40.8000 -75.1297 260° West 313 360 24,100 2,678 Climbing New York Center
Sat 06:29:53 AM 40.7828 -75.2547 258° West 336 387 26,600 2,450 Climbing New York Center
Sat 06:30:52 AM 40.7608 -75.3875 246° West 352 405 29,000 2,450 Climbing New York Center
Sat 06:31:53 AM 40.7183 -75.5133 245° Southwest 364 419 31,500 2,380 Climbing New York Center
Sat 06:32:53 AM 40.6739 -75.6361 242° Southwest 377 434 33,800 1,966 Climbing New York Center
Sat 06:33:52 AM 40.6250 -75.7556 245° Southwest 377 434 35,400 1,563 Climbing New York Center
Sat 06:34:52 AM 40.5803 -75.8808 242° Southwest 377 434 36,900 1,934 Climbing New York Center
Sat 06:35:53 AM 40.5289 -76.0053 244° Southwest 386 444 39,300 1,550 Climbing New York Center
Sat 06:36:52 AM 40.4839 -76.1275 243° Southwest 380 437 40,000 350 Climbing New York Center
Sat 06:37:53 AM 40.4389 -76.2442 242° Southwest 374 430 40,000  Level New York Center
Sat 06:38:51 AM 40.3917 -76.3603 244° Southwest 374 430 40,000  Level New York Center
Sat 06:39:52 AM 40.3486 -76.4767 262° West 369 425 40,000  Level New York Center
Sat 06:40:53 AM 40.3342 -76.6033 267° West 363 418 40,000  Level New York Center
Sat 06:41:51 AM 40.3297 -76.7311 265° West 357 411 40,000  Level New York Center
Sat 06:42:51 AM 40.3211 -76.8611 265° West 357 411 40,000  Level New York Center
Sat 06:43:51 AM 40.3119 -76.9989 265° West 352 405 40,000  Level New York Center
Sat 06:44:52 AM 40.3031 -77.1261 265° West 352 405 40,000  Level New York Center
Sat 06:45:52 AM 40.2936 -77.2586 267° West 357 411 40,000  Level New York Center
Sat 06:46:53 AM 40.2886 -77.3889 266° West 362 417 40,000  Level New York Center
Sat 06:49:00 AM 40.2719 -77.6767 265° West 367 422 40,000  Level Cleveland Center
Sat 06:50:00 AM 40.2628 -77.8106 263° West 367 422 40,000  Level Cleveland Center
Sat 06:51:00 AM 40.2528 -77.9225 265° West 367 422 40,000  Level Cleveland Center
Sat 06:52:00 AM 40.2433 -78.0561 266° West 367 422 40,000  Level Cleveland Center
Sat 06:53:00 AM 40.2358 -78.1897 268° West 367 422 40,000  Level Cleveland Center
Sat 06:54:00 AM 40.2325 -78.3231 270° West 367 422 40,000  Level Cleveland Center
Sat 06:55:00 AM 40.2328 -78.4564 268° West 367 422 40,000  Level Cleveland Center
Sat 06:56:00 AM 40.2289 -78.5897 269° West 367 422 40,000  Level Cleveland Center
Sat 06:57:00 AM 40.2272 -78.7231 269° West 367 422 40,000  Level Cleveland Center
Sat 06:58:00 AM 40.2250 -78.8592 268° West 367 422 40,000  Level Cleveland Center
Sat 06:59:00 AM 40.2208 -78.9925 269° West 367 422 40,000  Level Cleveland Center
Sat 07:00:00 AM 40.2183 -79.1258 267° West 367 422 40,000  Level Cleveland Center
Sat 07:01:00 AM 40.2136 -79.2592 270° West 367 422 40,000  Level Cleveland Center
Sat 07:02:00 AM 40.2133 -79.4031 268° West 367 422 40,000  Level Cleveland Center
Sat 07:03:00 AM 40.2103 -79.5364 269° West 367 422 40,000  Level Cleveland Center
Sat 07:04:00 AM 40.2075 -79.6753 267° West 373 429 40,000  Level Cleveland Center
Sat 07:05:00 AM 40.2022 -79.8083 268° West 373 429 40,000  Level Cleveland Center
Sat 07:06:00 AM 40.1989 -79.9444 267° West 373 429 40,000  Level Cleveland Center
Sat 07:07:00 AM 40.1933 -80.0775 268° West 373 429 40,000  Level Cleveland Center
Sat 07:08:00 AM 40.1894 -80.2133 268° West 368 423 40,000  Level Cleveland Center
Sat 07:09:00 AM 40.1858 -80.3467 267° West 368 423 40,000  Level Cleveland Center
Sat 07:10:00 AM 40.1817 -80.4581 267° West 368 423 40,000  Level Cleveland Center
Sat 07:11:00 AM 40.1756 -80.6047 267° West 368 423 40,000  Level Cleveland Center
Sat 07:12:58 AM 40.1625 -80.8869 267° West 371 427 40,000  Level Indianapolis Center
Sat 07:13:58 AM 40.1572 -81.0228 267° West 371 427 40,000  Level Indianapolis Center
Sat 07:14:58 AM 40.1517 -81.1561 267° West 371 427 40,000  Level Indianapolis Center
Sat 07:15:58 AM 40.1461 -81.2922 266° West 371 427 40,000  Level Indianapolis Center
Sat 07:16:58 AM 40.1381 -81.4256 267° West 371 427 40,000  Level Indianapolis Center
Sat 07:17:58 AM 40.1339 -81.5478 266° West 371 427 40,000  Level Indianapolis Center
Sat 07:18:58 AM 40.1258 -81.6811 269° West 366 421 40,000  Level Indianapolis Center
Sat 07:19:59 AM 40.1239 -81.8250 265° West 379 436 40,000  Level Indianapolis Center
Sat 07:20:58 AM 40.1153 -81.9608 266° West 385 443 40,000  Level Indianapolis Center
Sat 07:21:58 AM 40.1086 -82.0967 267° West 385 443 40,000  Level Indianapolis Center
Sat 07:22:58 AM 40.1019 -82.2381 266° West 385 443 40,000  Level Indianapolis Center
Sat 07:23:58 AM 40.0950 -82.3767 266° West 385 443 40,000  Level Indianapolis Center
Sat 07:24:58 AM 40.0861 -82.5286 265° West 385 443 40,000  Level Indianapolis Center
Sat 07:25:58 AM 40.0769 -82.6725 267° West 390 449 40,000  Level Indianapolis Center
Sat 07:26:58 AM 40.0714 -82.8083 265° West 385 443 40,000  Level Indianapolis Center
Sat 07:27:59 AM 40.0619 -82.9522 267° West 385 443 40,000  Level Indianapolis Center
Sat 07:28:58 AM 40.0564 -83.0878 266° West 385 443 40,000  Level Indianapolis Center
Sat 07:29:58 AM 40.0483 -83.2289 266° West 385 443 40,000  Level Indianapolis Center
Sat 07:30:59 AM 40.0403 -83.3725 267° West 385 443 40,000  Level Indianapolis Center
Sat 07:31:58 AM 40.0342 -83.5136 264° West 390 449 40,000  Level Indianapolis Center
Sat 07:32:58 AM 40.0217 -83.6572 265° West 395 455 40,000  Level Indianapolis Center
Sat 07:33:59 AM 40.0111 -83.8008 265° West 395 455 40,000  Level Indianapolis Center
Sat 07:34:59 AM 40.0025 -83.9419 264° West 395 455 40,000  Level Indianapolis Center
Sat 07:35:59 AM 39.9914 -84.0828 265° West 400 460 40,000  Level Indianapolis Center
Sat 07:36:58 AM 39.9825 -84.2261 265° West 405 466 40,000  Level Indianapolis Center
Sat 07:37:59 AM 39.9731 -84.3697 264° West 405 466 40,000  Level Indianapolis Center
Sat 07:38:58 AM 39.9617 -84.5131 265° West 405 466 40,000  Level Indianapolis Center
Sat 07:39:58 AM 39.9522 -84.6511 264° West 405 466 40,000  Level Indianapolis Center
Sat 07:40:59 AM 39.9425 -84.7808 263° West 405 466 40,000  Level Indianapolis Center
Sat 07:41:58 AM 39.9283 -84.9322 258° West 398 458 40,000  Level Indianapolis Center
Sat 07:42:59 AM 39.9058 -85.0753 258° West 398 458 40,000  Level Indianapolis Center
Sat 07:43:59 AM 39.8831 -85.2183 257° West 398 458 40,000  Level Indianapolis Center
Sat 07:44:59 AM 39.8581 -85.3556 260° West 403 464 40,000  Level Indianapolis Center
Sat 07:45:59 AM 39.8392 -85.4983 257° West 403 464 40,000  Level Indianapolis Center
Sat 07:46:59 AM 39.8139 -85.6356 249° West 403 464 40,000  Level Indianapolis Center
Sat 07:47:58 AM 39.7783 -85.7561 248° West 395 455 40,000  Level Indianapolis Center
Sat 07:48:58 AM 39.7383 -85.8869 248° West 395 455 40,000  Level Indianapolis Center
Sat 07:49:58 AM 39.6981 -86.0153 250° West 395 455 40,000  Level Indianapolis Center
Sat 07:50:58 AM 39.6597 -86.1514 248° West 395 455 40,000  Level Indianapolis Center
Sat 07:51:59 AM 39.6147 -86.2953 247° West 401 461 40,000  Level Indianapolis Center
Sat 07:52:59 AM 39.5722 -86.4258 249° West 406 467 40,000  Level Indianapolis Center
Sat 07:53:58 AM 39.5336 -86.5533 250° West 390 449 40,000 -403 Level Indianapolis Center
Sat 07:54:58 AM 39.4969 -86.6811 248° West 384 442 39,200 -850 Descending Indianapolis Center
Sat 07:55:58 AM 39.4558 -86.8111 247° West 384 442 38,300 -900 Descending Indianapolis Center
Sat 07:56:58 AM 39.4172 -86.9275 248° West 389 448 37,400 -900 Descending Indianapolis Center
Sat 07:57:58 AM 39.3756 -87.0625 247° West 395 455 36,500 -942 Descending Indianapolis Center
Sat 07:58:59 AM 39.3319 -87.1975 248° West 402 463 35,500 -1,000 Descending Indianapolis Center
Sat 07:59:58 AM 39.2900 -87.3347 233° Southwest 410 472 34,500 -950 Descending Indianapolis Center
Sat 08:00:59 AM 39.2194 -87.4569 229° Southwest 420 483 33,600 -750 Descending Indianapolis Center
Sat 08:01:58 AM 39.1403 -87.5731 246° West 434 499 33,000 -350 Descending Indianapolis Center
Sat 08:02:59 AM 39.0872 -87.7256 254° West 429 494 32,900 -720 Descending Indianapolis Center
Sat 08:05:18 AM 39.0167 -88.0475 263° West 424 488 30,600 -1,538 Descending Kansas City Center
Sat 08:06:18 AM 39.0031 -88.1822 270° West 411 473 27,800 -1,850 Descending Kansas City Center
Sat 08:07:18 AM 39.0022 -88.3242 271° West 397 457 26,900 -900 Descending Kansas City Center
Sat 08:08:18 AM 39.0033 -88.4656 270° West 397 457 26,000 -950 Descending Kansas City Center
Sat 08:09:18 AM 39.0042 -88.6097 269° West 402 463 25,000 -1,050 Descending Kansas City Center
Sat 08:10:18 AM 39.0028 -88.7542 269° West 402 463 23,900 -1,050 Descending Kansas City Center
Sat 08:11:18 AM 39.0008 -88.8881 269° West 402 463 22,900 -1,000 Descending Kansas City Center
Sat 08:12:18 AM 38.9994 -89.0350 271° West 386 444 21,900 -1,022 Descending Kansas City Center
Sat 08:13:33 AM 39.0011 -89.1486 268° West 372 428 20,600 -1,043 Descending FAA TRACON SMA TRACON (SMA)
Sat 08:14:13 AM 38.9986 -89.2275 268° West 361 415 19,900 -1,037 Descending FAA TRACON SMA TRACON (SMA)
Sat 08:14:54 AM 38.9961 -89.3153 269° West 359 413 19,200 -1,425 Descending FAA TRACON SMA TRACON (SMA)
Sat 08:15:33 AM 38.9944 -89.4025 268° West 351 404 18,000 -2,424 Descending FAA TRACON SMA TRACON (SMA)
Sat 08:16:33 AM 38.9911 -89.5264 252° West 350 403 15,200 -1,980 Descending FAA TRACON SMA TRACON (SMA)
Sat 08:17:13 AM 38.9725 -89.6014 247° West 360 414 14,700 -889 Descending FAA TRACON SMA TRACON (SMA)
Sat 08:17:54 AM 38.9456 -89.6828 249° West 359 413 14,000 -1,050 Descending FAA TRACON SMA TRACON (SMA)
Sat 08:18:33 AM 38.9211 -89.7653 247° West 356 410 13,300 -1,443 Descending FAA TRACON SMA TRACON (SMA)
Sat 08:19:13 AM 38.8981 -89.8358 248° West 346 398 12,100 -1,852 Descending FAA TRACON SMA TRACON (SMA)
Sat 08:19:54 AM 38.8736 -89.9119 247° West 330 380 10,800 -1,350 Descending FAA TRACON SMA TRACON (SMA)
Sat 08:20:33 AM 38.8536 -89.9728 247° West 297 342 10,300 -987 Descending FAA TRACON SMA TRACON (SMA)
Sat 08:21:13 AM 38.8333 -90.0353 248° West 271 312 9,500 -975 Descending FAA TRACON SMA TRACON (SMA)
Sat 08:21:53 AM 38.8150 -90.0933 261° West 253 291 9,000 -975 Descending FAA TRACON SMA TRACON (SMA)
Sat 08:22:33 AM 38.8083 -90.1478 293° West 235 270 8,200 -1,500 Descending FAA TRACON SMA TRACON (SMA)
Sat 08:23:13 AM 38.8228 -90.1925 292° West 221 254 7,000 -2,175 Descending FAA TRACON SMA TRACON (SMA)
Sat 08:23:53 AM 38.8381 -90.2414 279° West 212 244 5,300 -2,325 Descending FAA TRACON SMA TRACON (SMA)
Sat 08:24:33 AM 38.8436 -90.2883 256° West 191 220 3,900 -1,778 Descending FAA TRACON SMA TRACON (SMA)
Sat 08:25:14 AM 38.8369 -90.3219 215° Southwest 163 188 2,900 -1,275 Descending FAA TRACON SMA TRACON (SMA)
Sat 08:25:53 AM 38.8147 -90.3417 198° South 142 163 2,200 -911 Descending FAA TRACON SMA TRACON (SMA)
Sat 08:26:33 AM 38.7922 -90.3508 187° South 119 137 1,700 -667 Descending FAA TRACON SMA TRACON (SMA)
Sat 08:27:14 AM 38.7714 -90.3539 142° Southeast 113 130 1,300 -675 Descending FAA TRACON SMA TRACON (SMA)
Sat 08:27:53 AM 38.7558 -90.3383 142° Southeast 118 136 800 -769 Descending FAA TRACON SMA TRACON (SMA)

Login

Don't have an account? Register now (free) for customized features, flight alerts, and more!